Time;durP1;ratioP1;P1;durP2;ratioP2;P2;SDS_P1;SDS_P2;PMS_P1;PMS_P2;Temp;Humidity;BMP_temperature;BMP_pressure;BME280_temperature;BME280_humidity;BME280_pressure;Samples;Min_cycle;Max_cycle;Signal;HPM_P1;HPM_P2
2023/09/08 00:00:41;;;;;;;8.10;4.95;;;26.20;66.70;;;;;;5030643;28;20196;-68
2023/09/08 00:03:45;;;;;;;11.85;4.78;;;26.20;64.40;;;;;;5030485;28;20060;-69
2023/09/08 00:06:51;;;;;;;9.13;4.60;;;26.20;65.30;;;;;;5031058;28;20040;-68
2023/09/08 00:09:56;;;;;;;8.98;4.68;;;25.60;63.90;;;;;;5030518;28;20045;-68
2023/09/08 00:12:59;;;;;;;6.00;4.57;;;26.10;64.80;;;;;;5030961;28;20064;-68
2023/09/08 00:16:03;;;;;;;8.63;4.63;;;26.20;63.60;;;;;;5030757;28;20042;-69
2023/09/08 00:19:07;;;;;;;8.32;4.90;;;26.30;64.10;;;;;;5030655;28;20044;-69
2023/09/08 00:22:12;;;;;;;8.27;4.43;;;26.30;63.90;;;;;;5030617;28;20504;-69
2023/09/08 00:25:16;;;;;;;5.30;4.47;;;26.30;63.90;;;;;;5030827;28;20424;-68
2023/09/08 00:28:20;;;;;;;5.03;4.50;;;26.30;63.90;;;;;;5030838;28;20040;-68
2023/09/08 00:31:24;;;;;;;8.98;4.30;;;26.30;63.90;;;;;;5029684;28;20183;-68
2023/09/08 00:34:28;;;;;;;9.45;4.63;;;26.30;63.80;;;;;;5030521;28;20505;-68
2023/09/08 00:37:32;;;;;;;14.30;5.18;;;26.00;63.60;;;;;;5030282;28;20393;-68
2023/09/08 00:40:35;;;;;;;9.32;5.00;;;25.60;62.90;;;;;;5029773;28;20041;-68
2023/09/08 00:43:39;;;;;;;5.07;4.30;;;26.30;63.50;;;;;;5030916;28;20052;-68
2023/09/08 00:46:43;;;;;;;9.02;4.63;;;26.30;64.10;;;;;;5034160;28;20497;-68
2023/09/08 00:49:49;;;;;;;8.20;4.85;;;26.20;64.30;;;;;;5034003;28;20393;-68
2023/09/08 00:52:55;;;;;;;9.23;4.55;;;26.20;64.40;;;;;;5033281;28;20041;-69
2023/09/08 00:55:59;;;;;;;4.85;4.25;;;26.20;64.40;;;;;;5034032;28;20049;-68
2023/09/08 00:59:04;;;;;;;7.40;4.00;;;26.20;64.30;;;;;;5034009;28;20043;-69
2023/09/08 01:02:09;;;;;;;7.28;4.80;;;26.20;64.60;;;;;;5033865;28;20084;-69
2023/09/08 01:05:14;;;;;;;8.13;4.78;;;26.60;65.20;;;;;;5032889;28;20536;-67
2023/09/08 01:08:18;;;;;;;10.52;4.90;;;26.10;65.10;;;;;;5032931;28;20048;-68
2023/09/08 01:11:23;;;;;;;6.78;4.90;;;25.50;64.80;;;;;;5033692;28;20504;-68
2023/09/08 01:14:27;;;;;;;9.30;4.60;;;26.00;65.30;;;;;;5033464;28;20047;-67
2023/09/08 01:17:32;;;;;;;7.60;4.85;;;26.00;65.10;;;;;;5033504;28;20048;-68
2023/09/08 01:21:14;;;;;;;9.68;5.55;;;26.00;65.80;;;;;;5032848;28;20484;-68
2023/09/08 01:24:29;;;;;;;11.32;5.20;;;25.90;66.40;;;;;;5021290;28;20052;-67
2023/09/08 01:27:37;;;;;;;7.65;4.80;;;25.90;66.40;;;;;;5032725;28;20428;-67
2023/09/08 01:30:41;;;;;;;9.50;6.05;;;26.00;66.30;;;;;;5033246;28;20048;-67
2023/09/08 01:33:46;;;;;;;8.90;6.15;;;25.90;66.90;;;;;;5033280;28;20061;-67
2023/09/08 01:36:50;;;;;;;5.72;4.90;;;25.80;65.70;;;;;;5032703;28;20071;-68
2023/09/08 01:39:54;;;;;;;8.98;5.38;;;25.70;65.70;;;;;;5033274;28;20048;-67
2023/09/08 01:42:58;;;;;;;7.53;4.75;;;25.80;66.20;;;;;;5032311;28;20515;-69
2023/09/08 01:46:02;;;;;;;6.47;5.47;;;26.20;66.70;;;;;;5032462;28;20044;-69
2023/09/08 01:49:06;;;;;;;8.65;5.10;;;25.80;66.40;;;;;;5033031;28;20120;-68
2023/09/08 01:52:09;;;;;;;7.55;4.75;;;25.90;66.20;;;;;;5020418;28;20044;-67
2023/09/08 01:55:13;;;;;;;12.00;5.25;;;25.90;66.20;;;;;;5032565;28;20040;-68
2023/09/08 01:58:17;;;;;;;14.48;5.45;;;25.90;65.80;;;;;;5032799;28;20049;-68
2023/09/08 02:01:21;;;;;;;7.18;4.95;;;25.90;65.70;;;;;;5031851;28;20044;-68
2023/09/08 02:04:25;;;;;;;8.52;4.80;;;25.90;65.70;;;;;;5033040;28;20485;-67
2023/09/08 02:07:28;;;;;;;7.72;5.55;;;25.80;65.60;;;;;;5032934;28;20037;-67
2023/09/08 02:10:35;;;;;;;7.97;5.50;;;25.90;66.80;;;;;;5032493;28;20040;-67
2023/09/08 02:13:42;;;;;;;7.05;5.30;;;25.90;66.50;;;;;;5031884;28;20500;-67
2023/09/08 02:16:46;;;;;;;8.45;5.93;;;25.90;66.50;;;;;;5032811;28;20048;-67
2023/09/08 02:19:50;;;;;;;6.97;5.22;;;25.80;66.60;;;;;;5032270;28;20117;-68
2023/09/08 02:22:54;;;;;;;8.05;5.68;;;26.20;66.90;;;;;;5031542;28;20064;-67
2023/09/08 02:25:58;;;;;;;9.90;6.15;;;25.90;66.60;;;;;;5031518;28;20650;-67
2023/09/08 02:29:03;;;;;;;10.82;5.65;;;25.80;66.70;;;;;;5019821;28;20048;-66
2023/09/08 02:32:07;;;;;;;15.18;5.53;;;25.80;66.80;;;;;;5031262;28;20045;-68
2023/09/08 02:35:11;;;;;;;8.60;5.30;;;25.60;66.70;;;;;;5031163;28;20193;-66
2023/09/08 02:38:16;;;;;;;11.55;5.30;;;25.80;66.70;;;;;;5031509;28;20033;-67
2023/09/08 02:41:20;;;;;;;10.50;5.65;;;25.80;67.30;;;;;;5031832;28;20049;-67
2023/09/08 02:44:25;;;;;;;9.65;6.00;;;25.70;67.30;;;;;;5031354;28;20127;-67
2023/09/08 02:47:30;;;;;;;8.43;4.90;;;25.60;67.40;;;;;;5032122;28;20040;-67
2023/09/08 02:50:36;;;;;;;9.20;5.43;;;25.60;68.00;;;;;;5031114;28;20052;-66
2023/09/08 02:53:39;;;;;;;8.60;5.47;;;25.60;68.10;;;;;;5031258;28;20044;-66
2023/09/08 02:56:43;;;;;;;10.55;5.65;;;25.50;67.40;;;;;;5030932;28;20052;-66
2023/09/08 02:59:51;;;;;;;8.43;5.90;;;25.50;68.10;;;;;;5030833;28;20056;-67
2023/09/08 03:02:55;;;;;;;9.43;5.70;;;25.50;68.10;;;;;;5031572;28;20053;-67
2023/09/08 03:06:03;;;;;;;8.95;5.85;;;25.50;67.60;;;;;;5030325;28;20603;-67
2023/09/08 03:09:10;;;;;;;7.97;5.57;;;25.50;67.00;;;;;;5030718;28;20500;-66
2023/09/08 03:12:14;;;;;;;6.68;5.40;;;25.50;65.60;;;;;;5031415;28;20048;-67
2023/09/08 03:15:19;;;;;;;6.95;5.72;;;25.50;66.10;;;;;;5030799;28;20040;-68
2023/09/08 03:18:23;;;;;;;5.85;5.05;;;25.50;66.00;;;;;;5030373;28;20060;-68
2023/09/08 03:21:27;;;;;;;8.20;5.50;;;25.80;65.50;;;;;;5031076;28;20036;-68
2023/09/08 03:24:31;;;;;;;6.53;5.75;;;24.90;65.00;;;;;;5031212;28;20056;-67
2023/09/08 03:27:35;;;;;;;7.10;5.63;;;25.60;66.20;;;;;;5030739;28;20044;-67
2023/09/08 03:30:38;;;;;;;10.20;6.05;;;25.60;66.10;;;;;;5031370;28;20064;-68
2023/09/08 03:33:43;;;;;;;6.18;5.57;;;25.90;66.50;;;;;;5030288;28;20048;-67
2023/09/08 03:36:48;;;;;;;12.77;5.55;;;25.60;66.50;;;;;;5031250;28;20401;-67
2023/09/08 03:39:53;;;;;;;6.40;5.05;;;25.60;66.50;;;;;;5030986;28;20032;-66
2023/09/08 03:42:57;;;;;;;6.13;5.43;;;25.60;66.50;;;;;;5030102;28;20052;-66
2023/09/08 03:46:00;;;;;;;6.60;5.80;;;25.70;66.10;;;;;;5030833;28;20044;-66
2023/09/08 03:49:04;;;;;;;7.25;5.70;;;25.60;66.50;;;;;;5030329;28;20658;-66
2023/09/08 03:52:08;;;;;;;12.85;5.47;;;25.60;66.80;;;;;;5030292;28;20052;-67
2023/09/08 03:55:15;;;;;;;6.68;5.82;;;25.60;66.10;;;;;;5030150;28;20052;-67
2023/09/08 03:58:19;;;;;;;8.70;5.55;;;25.60;66.60;;;;;;5030773;28;20048;-67
2023/09/08 04:01:23;;;;;;;10.55;5.82;;;25.50;66.40;;;;;;5029890;28;20040;-67
2023/09/08 04:04:27;;;;;;;10.10;6.13;;;25.50;67.00;;;;;;5030017;28;20040;-67
2023/09/08 04:07:31;;;;;;;10.48;6.15;;;25.00;66.60;;;;;;5030985;28;20068;-67
2023/09/08 04:10:35;;;;;;;9.25;6.13;;;25.50;68.40;;;;;;5030700;28;20048;-67
2023/09/08 04:13:39;;;;;;;8.70;6.18;;;25.30;69.00;;;;;;5030754;28;20401;-67
2023/09/08 04:16:42;;;;;;;12.00;6.78;;;25.20;69.40;;;;;;5029976;28;20045;-67
2023/09/08 04:19:46;;;;;;;9.15;6.18;;;25.10;69.60;;;;;;5034647;28;20049;-67
2023/09/08 04:22:50;;;;;;;10.98;6.55;;;25.10;69.70;;;;;;5033752;28;20052;-68
2023/09/08 04:25:54;;;;;;;9.88;6.63;;;25.10;70.30;;;;;;5034483;28;20064;-67
2023/09/08 04:28:58;;;;;;;7.93;6.43;;;24.90;70.30;;;;;;5034087;28;20048;-68
2023/09/08 04:32:08;;;;;;;11.95;6.18;;;24.60;70.20;;;;;;5033365;28;20045;-66
2023/09/08 04:35:12;;;;;;;11.48;6.88;;;25.00;70.80;;;;;;5033500;28;20068;-67
2023/09/08 04:38:19;;;;;;;10.93;6.43;;;24.90;70.30;;;;;;5033380;28;20061;-67
2023/09/08 04:41:25;;;;;;;7.55;6.40;;;24.90;70.70;;;;;;5033603;28;20048;-68
2023/09/08 04:44:30;;;;;;;10.60;6.22;;;24.90;70.40;;;;;;5033647;28;20404;-69
2023/09/08 04:47:34;;;;;;;11.57;7.15;;;25.00;70.40;;;;;;5033613;28;20045;-69
2023/09/08 04:50:38;;;;;;;15.77;6.63;;;24.80;70.00;;;;;;5033281;28;20512;-67
2023/09/08 04:53:41;;;;;;;11.35;7.05;;;24.80;70.40;;;;;;5034338;28;20048;-68
2023/09/08 04:56:45;;;;;;;14.60;7.63;;;24.80;71.00;;;;;;5033172;28;20057;-69
2023/09/08 04:59:49;;;;;;;11.95;8.02;;;25.70;71.80;;;;;;5032853;28;20040;-68
2023/09/08 05:02:53;;;;;;;12.77;8.10;;;24.80;71.30;;;;;;5032901;28;20650;-68
2023/09/08 05:05:57;;;;;;;16.63;8.45;;;24.80;71.80;;;;;;5032794;28;20076;-68
2023/09/08 05:09:01;;;;;;;16.80;8.93;;;24.90;71.20;;;;;;5033596;28;20052;-68
2023/09/08 05:12:07;;;;;;;17.38;9.98;;;24.90;71.20;;;;;;5032883;28;20044;-65
2023/09/08 05:15:16;;;;;;;17.15;9.77;;;25.00;70.70;;;;;;5032559;28;20052;-64
2023/09/08 05:18:25;;;;;;;24.33;12.50;;;25.00;71.20;;;;;;5032356;28;20068;-64
2023/09/08 05:21:29;;;;;;;18.02;11.45;;;25.10;71.30;;;;;;5032568;28;20053;-66
2023/09/08 05:24:33;;;;;;;21.30;8.98;;;25.10;71.10;;;;;;5032660;28;20052;-65
2023/09/08 05:27:37;;;;;;;33.28;9.18;;;25.60;70.30;;;;;;5033150;28;20504;-65
2023/09/08 05:30:41;;;;;;;26.77;8.73;;;25.80;71.20;;;;;;5032480;28;20061;-65
2023/09/08 05:33:45;;;;;;;22.30;9.27;;;26.40;69.00;;;;;;5032051;28;20065;-64
2023/09/08 05:36:50;;;;;;;15.77;8.80;;;26.80;69.30;;;;;;5032358;28;20052;-65
2023/09/08 05:39:54;;;;;;;15.60;8.93;;;28.30;68.30;;;;;;5032971;28;20040;-64
2023/09/08 05:42:57;;;;;;;19.42;8.55;;;27.30;68.10;;;;;;5032981;28;20057;-65
2023/09/08 05:46:03;;;;;;;19.58;8.05;;;27.40;68.00;;;;;;5033005;28;20045;-65
2023/09/08 05:49:07;;;;;;;28.55;9.13;;;27.30;68.10;;;;;;5032361;28;20040;-66
2023/09/08 05:52:11;;;;;;;17.50;7.57;;;27.10;68.40;;;;;;5032931;28;20040;-65
2023/09/08 05:55:16;;;;;;;18.00;8.35;;;27.40;67.70;;;;;;5032072;28;20044;-66
2023/09/08 05:58:20;;;;;;;11.50;7.68;;;27.90;66.70;;;;;;5031623;28;20045;-66
2023/09/08 06:01:28;;;;;;;14.63;7.32;;;28.60;66.00;;;;;;5021086;28;20040;-65
2023/09/08 06:04:33;;;;;;;55.35;24.83;;;28.80;65.90;;;;;;5031680;28;20060;-65
2023/09/08 06:07:38;;;;;;;20.73;9.48;;;29.00;64.70;;;;;;5020596;28;20041;-67
2023/09/08 06:10:42;;;;;;;33.67;15.93;;;28.90;65.20;;;;;;5031728;28;20099;-66
2023/09/08 06:13:47;;;;;;;27.17;13.07;;;29.10;64.90;;;;;;5054452;28;20516;-64
2023/09/08 06:16:52;;;;;;;26.60;13.90;;;29.20;64.50;;;;;;5031870;28;20056;-65
2023/09/08 06:19:56;;;;;;;22.35;11.02;;;29.30;64.60;;;;;;5020184;28;20045;-67
2023/09/08 06:23:00;;;;;;;27.10;10.65;;;29.40;65.10;;;;;;5032509;28;20048;-67
2023/09/08 06:26:04;;;;;;;16.85;9.63;;;29.60;64.90;;;;;;5032407;28;20060;-66
2023/09/08 06:29:10;;;;;;;20.98;8.73;;;29.70;63.70;;;;;;5019882;28;20056;-66
2023/09/08 06:32:15;;;;;;;22.48;8.90;;;29.70;63.50;;;;;;5031058;28;20061;-65
2023/09/08 06:35:21;;;;;;;16.67;8.00;;;29.90;63.40;;;;;;5031124;28;20052;-67
2023/09/08 06:38:25;;;;;;;21.95;8.05;;;30.00;63.40;;;;;;5030974;28;20057;-68
2023/09/08 06:41:29;;;;;;;28.85;8.13;;;30.20;63.60;;;;;;5030710;28;20424;-68
2023/09/08 06:44:36;;;;;;;30.17;8.27;;;30.20;63.40;;;;;;5030651;28;20404;-68
2023/09/08 06:47:41;;;;;;;26.10;7.32;;;30.20;63.00;;;;;;5031026;28;20508;-69
2023/09/08 06:50:45;;;;;;;16.02;7.97;;;30.30;63.30;;;;;;5031302;28;20081;-68
2023/09/08 06:53:56;;;;;;;16.08;7.55;;;30.30;63.00;;;;;;5031637;28;20043;-68
2023/09/08 06:57:03;;;;;;;12.68;6.65;;;30.30;62.60;;;;;;5030745;28;20512;-66
2023/09/08 07:00:07;;;;;;;13.63;6.30;;;30.30;62.10;;;;;;5042155;28;20512;-68
2023/09/08 07:03:12;;;;;;;10.85;6.22;;;30.50;61.50;;;;;;5030071;28;20072;-67
2023/09/08 07:06:16;;;;;;;17.63;6.43;;;30.70;61.40;;;;;;5019121;28;20056;-68
2023/09/08 07:09:21;;;;;;;13.77;6.57;;;30.80;61.70;;;;;;5030617;28;20040;-67
2023/09/08 07:12:24;;;;;;;11.88;5.78;;;30.70;61.50;;;;;;5019292;28;20064;-67
2023/09/08 07:15:28;;;;;;;13.27;6.85;;;30.90;60.90;;;;;;5008166;28;20045;-67
2023/09/08 07:18:35;;;;;;;16.90;6.25;;;30.80;60.70;;;;;;5031297;28;20045;-69
2023/09/08 07:21:40;;;;;;;11.27;6.40;;;30.70;61.00;;;;;;5019238;28;20044;-69
2023/09/08 07:24:44;;;;;;;13.75;6.28;;;30.90;61.00;;;;;;5031095;28;20049;-66
2023/09/08 07:27:52;;;;;;;9.93;5.95;;;30.70;60.30;;;;;;5030306;28;20404;-67
2023/09/08 07:31:04;;;;;;;14.07;6.15;;;30.60;61.40;;;;;;5030319;28;20052;-67
2023/09/08 07:34:09;;;;;;;13.70;6.35;;;30.80;60.80;;;;;;5028950;28;20567;-69
2023/09/08 07:37:13;;;;;;;12.48;7.30;;;30.80;61.50;;;;;;5031007;28;20049;-71
2023/09/08 07:40:17;;;;;;;12.27;5.78;;;30.50;61.40;;;;;;5030251;28;20045;-69
2023/09/08 07:43:22;;;;;;;27.75;13.15;;;30.50;61.70;;;;;;5030335;28;20056;-70
2023/09/08 07:46:27;;;;;;;14.73;5.90;;;30.40;62.00;;;;;;5030127;28;20053;-69
2023/09/08 07:49:34;;;;;;;10.20;6.03;;;30.30;61.30;;;;;;5030571;28;20052;-69
2023/09/08 07:52:38;;;;;;;13.68;5.80;;;30.60;62.00;;;;;;5030140;28;20056;-69
2023/09/08 07:55:42;;;;;;;18.45;6.53;;;30.50;62.00;;;;;;5029933;28;20049;-67
2023/09/08 07:58:45;;;;;;;16.10;6.78;;;30.40;62.20;;;;;;5029780;28;20048;-66
2023/09/08 08:01:50;;;;;;;16.25;6.32;;;30.40;62.40;;;;;;5030469;28;20040;-66
2023/09/08 08:04:54;;;;;;;11.55;5.93;;;30.50;62.10;;;;;;5030270;28;20485;-70
2023/09/08 08:07:59;;;;;;;14.65;7.45;;;30.40;62.70;;;;;;5030591;28;20045;-69
2023/09/08 08:11:08;;;;;;;16.05;8.00;;;30.50;62.40;;;;;;5030726;28;20052;-66
2023/09/08 08:14:12;;;;;;;10.07;6.78;;;30.30;62.80;;;;;;5030361;28;20040;-69
2023/09/08 08:17:17;;;;;;;12.65;6.50;;;30.30;63.60;;;;;;5030361;28;20045;-70
2023/09/08 08:20:21;;;;;;;15.65;7.18;;;30.20;63.10;;;;;;5030337;28;20060;-67
2023/09/08 08:23:25;;;;;;;17.05;6.43;;;30.10;63.60;;;;;;5030456;28;20419;-68
2023/09/08 08:26:32;;;;;;;18.35;6.90;;;30.20;63.60;;;;;;5030336;28;20408;-69
2023/09/08 08:29:36;;;;;;;21.98;7.15;;;30.20;63.50;;;;;;5030020;28;20048;-69
2023/09/08 08:32:40;;;;;;;25.38;6.72;;;30.20;64.00;;;;;;5029713;28;20072;-67
2023/09/08 08:35:52;;;;;;;12.55;6.43;;;30.20;63.50;;;;;;5029400;28;20048;-69
2023/09/08 08:38:56;;;;;;;18.02;7.80;;;30.20;63.70;;;;;;5030068;28;20262;-69
2023/09/08 08:42:07;;;;;;;24.98;7.07;;;30.40;63.60;;;;;;5030437;28;20060;-67
2023/09/08 08:45:11;;;;;;;8.90;6.10;;;30.40;63.80;;;;;;5030459;28;20056;-66
2023/09/08 08:48:18;;;;;;;10.48;5.93;;;30.60;64.10;;;;;;5030491;28;20037;-67
2023/09/08 08:51:24;;;;;;;19.75;7.07;;;31.50;61.90;;;;;;5030513;28;20056;-70
2023/09/08 08:54:28;;;;;;;18.25;6.88;;;31.90;61.90;;;;;;5030372;28;20049;-68
2023/09/08 08:57:33;;;;;;;15.82;7.00;;;33.10;60.90;;;;;;5030255;28;20052;-69
2023/09/08 09:00:38;;;;;;;24.17;7.78;;;33.80;59.00;;;;;;5030147;28;20053;-69
2023/09/08 09:03:43;;;;;;;21.38;6.68;;;32.70;60.20;;;;;;5030255;28;20053;-69
2023/09/08 09:06:47;;;;;;;16.08;6.50;;;32.70;60.10;;;;;;5033787;28;20504;-70
2023/09/08 09:09:52;;;;;;;11.30;6.28;;;32.30;60.90;;;;;;5033222;28;20045;-69
2023/09/08 09:12:56;;;;;;;11.30;6.30;;;32.00;62.30;;;;;;5033436;28;20044;-69
2023/09/08 09:16:03;;;;;;;27.25;7.28;;;31.60;62.20;;;;;;5033187;28;20104;-69
2023/09/08 09:19:07;;;;;;;11.40;6.45;;;31.30;63.30;;;;;;5033696;28;20041;-70
2023/09/08 09:22:11;;;;;;;10.35;5.97;;;31.00;63.50;;;;;;5033463;28;20056;-68
2023/09/08 09:25:23;;;;;;;15.40;6.68;;;30.90;63.60;;;;;;5033718;28;20060;-68
2023/09/08 09:28:30;;;;;;;19.50;6.97;;;30.80;63.50;;;;;;5033538;28;20040;-68
2023/09/08 09:31:34;;;;;;;18.95;6.97;;;30.70;64.10;;;;;;5033017;28;20040;-67
2023/09/08 09:34:50;;;;;;;10.77;6.57;;;30.80;64.30;;;;;;5033020;28;20124;-69
2023/09/08 09:37:54;;;;;;;15.88;6.97;;;30.70;64.00;;;;;;5032985;28;20044;-68
2023/09/08 09:40:58;;;;;;;12.15;7.18;;;30.60;64.30;;;;;;5033216;28;20045;-67
2023/09/08 09:44:03;;;;;;;22.13;7.32;;;30.80;64.60;;;;;;5032935;28;20052;-71
2023/09/08 09:47:09;;;;;;;17.35;6.60;;;30.80;63.90;;;;;;5032681;28;20252;-68
2023/09/08 09:50:14;;;;;;;9.80;6.63;;;30.90;64.20;;;;;;5032770;28;20049;-66
2023/09/08 09:53:18;;;;;;;16.00;7.03;;;31.00;63.70;;;;;;5032794;28;20600;-68
2023/09/08 09:56:23;;;;;;;14.80;7.32;;;30.90;64.60;;;;;;5032714;28;20123;-68
2023/09/08 09:59:27;;;;;;;16.00;7.60;;;30.80;64.00;;;;;;5031203;28;20045;-67
2023/09/08 10:02:31;;;;;;;12.98;6.70;;;30.60;64.90;;;;;;5032658;28;20052;-67
2023/09/08 10:05:36;;;;;;;16.63;7.20;;;31.00;64.80;;;;;;5032550;28;20117;-68
2023/09/08 10:08:40;;;;;;;13.98;7.10;;;32.30;63.50;;;;;;5032741;28;20048;-68
2023/09/08 10:11:49;;;;;;;12.88;7.00;;;33.10;62.30;;;;;;5032749;28;20068;-67
2023/09/08 10:14:55;;;;;;;13.63;6.65;;;33.10;60.80;;;;;;5032531;28;20076;-67
2023/09/08 10:18:03;;;;;;;11.73;7.00;;;33.00;61.80;;;;;;5032462;28;20048;-68
2023/09/08 10:21:09;;;;;;;12.82;6.15;;;33.40;60.50;;;;;;5032188;28;20397;-66
2023/09/08 10:24:26;;;;;;;16.23;5.78;;;33.10;60.50;;;;;;5032386;28;20052;-68
2023/09/08 10:27:33;;;;;;;7.35;6.43;;;33.80;60.40;;;;;;5032445;28;20048;-67
2023/09/08 10:30:38;;;;;;;11.45;5.95;;;34.20;59.60;;;;;;5031897;28;20064;-69
2023/09/08 10:33:43;;;;;;;19.05;6.20;;;34.00;59.50;;;;;;5031137;28;20056;-68
2023/09/08 10:36:47;;;;;;;9.10;5.50;;;33.90;59.80;;;;;;5031227;28;20243;-67
2023/09/08 10:39:51;;;;;;;7.65;5.72;;;34.20;59.10;;;;;;5031010;28;20068;-66
2023/09/08 10:43:11;;;;;;;12.70;6.28;;;34.00;59.70;;;;;;5031764;28;20044;-68
2023/09/08 10:46:23;;;;;;;9.93;6.63;;;33.70;60.00;;;;;;5031900;28;20049;-68
2023/09/08 10:49:34;;;;;;;10.35;6.38;;;33.00;59.80;;;;;;5031810;28;20516;-68
2023/09/08 10:52:38;;;;;;;13.43;6.88;;;32.20;61.90;;;;;;5031818;28;20401;-68
2023/09/08 10:55:47;;;;;;;10.70;6.30;;;31.90;62.90;;;;;;5031761;28;20476;-68
2023/09/08 10:58:52;;;;;;;11.77;6.18;;;31.60;62.70;;;;;;5031599;28;20056;-67
2023/09/08 11:01:58;;;;;;;15.82;6.90;;;31.70;63.20;;;;;;5031184;28;20425;-68
2023/09/08 11:05:04;;;;;;;7.97;6.10;;;31.80;63.00;;;;;;5031276;28;20086;-68
2023/09/08 11:08:09;;;;;;;9.57;6.43;;;31.80;63.80;;;;;;5030374;28;20044;-67
2023/09/08 11:11:15;;;;;;;12.93;6.13;;;31.70;62.70;;;;;;5030050;28;20393;-67
2023/09/08 11:14:20;;;;;;;14.82;6.15;;;31.80;63.30;;;;;;5031394;28;20040;-67
2023/09/08 11:17:28;;;;;;;12.55;6.93;;;31.80;63.40;;;;;;5031456;28;20072;-68
2023/09/08 11:20:32;;;;;;;12.30;6.38;;;31.50;64.00;;;;;;5031471;28;20543;-67
2023/09/08 11:23:37;;;;;;;11.63;6.70;;;31.60;63.70;;;;;;5030444;28;20040;-68
2023/09/08 11:26:45;;;;;;;10.75;6.93;;;31.50;64.20;;;;;;5031106;28;20044;-69
2023/09/08 11:29:50;;;;;;;8.15;5.63;;;31.60;64.30;;;;;;5030394;28;20658;-69
2023/09/08 11:32:54;;;;;;;15.15;6.50;;;31.50;63.30;;;;;;5030886;28;20057;-68
2023/09/08 11:35:58;;;;;;;11.68;5.97;;;31.40;63.60;;;;;;5031138;28;20151;-68
2023/09/08 11:39:06;;;;;;;12.93;6.35;;;31.60;64.10;;;;;;5030832;28;20040;-70
2023/09/08 11:42:15;;;;;;;11.35;6.13;;;31.60;63.30;;;;;;5031190;28;20642;-67
2023/09/08 11:45:23;;;;;;;13.13;6.07;;;31.60;63.60;;;;;;5030763;28;20056;-67
2023/09/08 11:48:27;;;;;;;9.98;5.82;;;31.60;62.50;;;;;;5031068;28;20048;-67
2023/09/08 11:51:31;;;;;;;12.07;6.13;;;31.50;63.30;;;;;;5030837;28;20044;-69
2023/09/08 11:54:37;;;;;;;9.15;5.20;;;31.50;63.10;;;;;;5030833;28;20085;-68
2023/09/08 11:57:44;;;;;;;14.38;6.88;;;31.50;62.80;;;;;;5030664;28;20524;-69
2023/09/08 12:00:49;;;;;;;12.30;5.88;;;31.60;62.90;;;;;;5030278;28;20477;-68
2023/09/08 12:03:54;;;;;;;10.18;5.80;;;31.60;61.70;;;;;;5030198;28;20044;-68
2023/09/08 12:06:58;;;;;;;9.98;5.75;;;31.60;62.10;;;;;;5030486;28;20044;-68
2023/09/08 12:10:09;;;;;;;16.30;6.53;;;31.60;62.60;;;;;;5030663;28;20381;-68
2023/09/08 12:13:14;;;;;;;17.02;6.22;;;31.50;62.90;;;;;;5029886;28;20052;-67
2023/09/08 12:16:24;;;;;;;11.32;6.15;;;31.50;63.40;;;;;;5030602;28;20048;-68
2023/09/08 12:19:32;;;;;;;10.25;5.95;;;31.50;63.10;;;;;;5030608;28;20048;-68
2023/09/08 12:22:36;;;;;;;19.50;6.70;;;31.50;62.10;;;;;;5030559;28;20500;-69
2023/09/08 12:25:51;;;;;;;11.40;5.88;;;31.50;62.60;;;;;;5030799;28;20065;-68
2023/09/08 12:28:55;;;;;;;12.52;6.05;;;31.60;63.00;;;;;;5030554;28;20045;-68
2023/09/08 12:31:59;;;;;;;8.88;6.05;;;32.50;62.10;;;;;;5030563;28;20052;-68
2023/09/08 12:35:04;;;;;;;14.77;6.38;;;33.90;60.60;;;;;;5030720;28;20519;-68
2023/09/08 12:38:08;;;;;;;9.93;5.90;;;35.00;59.60;;;;;;5030676;28;20076;-68
2023/09/08 12:41:12;;;;;;;16.80;5.75;;;35.70;58.60;;;;;;5034624;28;20048;-68
2023/09/08 12:44:16;;;;;;;11.35;5.43;;;35.90;57.40;;;;;;5033842;28;20057;-65
2023/09/08 12:47:20;;;;;;;8.02;5.63;;;35.80;56.70;;;;;;5034041;28;20049;-68
2023/09/08 12:50:25;;;;;;;17.27;5.53;;;34.80;57.10;;;;;;5034123;28;20044;-68
2023/09/08 12:53:37;;;;;;;11.05;5.70;;;34.10;58.60;;;;;;5033823;28;20048;-68
2023/09/08 12:56:40;;;;;;;10.70;5.63;;;35.00;58.20;;;;;;5033358;28;20048;-68
2023/09/08 12:59:44;;;;;;;8.18;5.50;;;35.40;58.10;;;;;;5034047;28;20045;-68
2023/09/08 13:02:49;;;;;;;9.77;5.55;;;36.00;57.80;;;;;;5033675;28;20056;-68
2023/09/08 13:05:53;;;;;;;15.70;6.07;;;35.40;57.20;;;;;;5033996;28;20056;-68
2023/09/08 13:08:58;;;;;;;9.07;6.05;;;34.50;58.10;;;;;;5033914;28;20397;-68
2023/09/08 13:12:02;;;;;;;9.35;5.95;;;33.80;59.40;;;;;;5033158;28;20048;-68
2023/09/08 13:15:06;;;;;;;8.55;5.60;;;33.40;60.00;;;;;;5033358;28;20049;-68
2023/09/08 13:18:10;;;;;;;9.07;6.30;;;33.00;60.40;;;;;;5032591;28;20044;-68
2023/09/08 13:21:14;;;;;;;15.20;5.65;;;32.90;60.50;;;;;;5033380;28;20045;-68
2023/09/08 13:24:21;;;;;;;7.75;6.18;;;32.70;60.40;;;;;;5033462;28;20107;-69
2023/09/08 13:27:25;;;;;;;7.65;5.63;;;32.60;60.40;;;;;;5033581;28;20496;-69
2023/09/08 13:30:33;;;;;;;6.55;5.28;;;32.40;60.60;;;;;;5032998;28;20048;-69
2023/09/08 13:33:37;;;;;;;13.32;6.82;;;32.30;60.40;;;;;;5033069;28;20512;-69
2023/09/08 13:36:41;;;;;;;9.50;5.88;;;32.50;61.00;;;;;;5033407;28;20492;-70
2023/09/08 13:39:45;;;;;;;14.18;5.40;;;32.30;60.20;;;;;;5033021;28;20401;-68
2023/09/08 13:42:49;;;;;;;10.10;5.68;;;32.40;61.20;;;;;;5032825;28;20068;-69
2023/09/08 13:45:52;;;;;;;8.98;5.68;;;32.30;61.00;;;;;;5033193;28;20420;-69
2023/09/08 13:48:56;;;;;;;11.60;6.45;;;32.30;61.00;;;;;;5032913;28;20044;-69
2023/09/08 13:52:01;;;;;;;9.70;6.10;;;32.30;61.20;;;;;;5032375;28;20052;-71
2023/09/08 13:55:08;;;;;;;14.77;6.25;;;32.30;61.70;;;;;;5032750;28;20045;-67
2023/09/08 13:58:12;;;;;;;13.88;6.72;;;32.20;62.00;;;;;;5032836;28;20052;-69
2023/09/08 14:01:16;;;;;;;11.32;6.18;;;32.10;62.30;;;;;;5032902;28;20044;-70
2023/09/08 14:04:20;;;;;;;10.93;6.10;;;32.00;61.80;;;;;;5031823;28;20048;-69
2023/09/08 14:07:25;;;;;;;7.20;5.93;;;31.90;61.90;;;;;;5032624;28;20112;-69
2023/09/08 14:10:28;;;;;;;13.50;6.13;;;31.80;62.20;;;;;;5031834;28;20049;-69
2023/09/08 14:13:33;;;;;;;14.38;6.45;;;31.80;62.40;;;;;;5032538;28;20044;-68
2023/09/08 14:16:37;;;;;;;9.52;5.88;;;31.80;62.50;;;;;;5032653;28;20524;-67
2023/09/08 14:19:40;;;;;;;10.95;6.25;;;31.80;62.80;;;;;;5032092;28;20105;-67
2023/09/08 14:22:45;;;;;;;12.93;6.65;;;31.70;62.70;;;;;;5031762;28;20044;-67
2023/09/08 14:25:48;;;;;;;9.13;6.60;;;31.70;63.30;;;;;;5030686;28;20056;-67
2023/09/08 14:28:53;;;;;;;12.60;6.05;;;31.70;63.30;;;;;;5032030;28;20377;-67
2023/09/08 14:31:57;;;;;;;8.98;6.22;;;31.80;63.40;;;;;;5032023;28;20385;-67
2023/09/08 14:35:01;;;;;;;9.93;5.93;;;31.80;63.30;;;;;;5029151;28;20060;-67
2023/09/08 14:38:05;;;;;;;20.73;6.90;;;31.80;63.80;;;;;;5031479;28;20046;-67
2023/09/08 14:41:09;;;;;;;9.13;6.38;;;31.60;63.50;;;;;;5031934;28;20072;-67
2023/09/08 14:44:13;;;;;;;11.55;6.65;;;31.50;63.40;;;;;;5031970;28;20057;-69
2023/09/08 14:47:18;;;;;;;8.77;5.70;;;31.60;63.40;;;;;;5032029;28;20394;-67
2023/09/08 14:50:25;;;;;;;15.32;6.35;;;31.60;63.70;;;;;;5042355;28;20043;-68
2023/09/08 14:53:31;;;;;;;13.55;6.00;;;31.60;64.00;;;;;;5031614;28;20064;-68
2023/09/08 14:56:35;;;;;;;9.77;6.43;;;31.70;63.60;;;;;;5031799;28;20052;-67
2023/09/08 14:59:39;;;;;;;14.00;6.32;;;31.70;63.80;;;;;;5031314;28;20628;-71
2023/09/08 15:02:43;;;;;;;17.00;6.95;;;31.70;63.80;;;;;;5030970;28;20052;-68
2023/09/08 15:05:47;;;;;;;9.10;6.07;;;31.50;63.80;;;;;;5031546;28;20060;-67
2023/09/08 15:08:51;;;;;;;9.25;6.25;;;31.40;64.00;;;;;;5031322;28;20045;-68
2023/09/08 15:11:55;;;;;;;8.93;5.88;;;31.40;64.10;;;;;;5031333;28;20081;-68
2023/09/08 15:14:58;;;;;;;12.85;6.20;;;31.30;64.40;;;;;;5031401;28;20441;-74
2023/09/08 15:18:02;;;;;;;13.38;6.35;;;31.30;64.70;;;;;;5031456;28;20044;-71
2023/09/08 15:21:07;;;;;;;9.48;6.45;;;31.20;64.40;;;;;;5031673;28;20040;-73
2023/09/08 15:24:11;;;;;;;12.55;6.00;;;31.10;64.50;;;;;;5031156;28;20053;-72
2023/09/08 15:27:15;;;;;;;19.40;6.80;;;31.10;64.20;;;;;;5030707;28;20064;-69
2023/09/08 15:30:19;;;;;;;12.68;6.18;;;31.10;64.40;;;;;;5031312;28;20044;-68
2023/09/08 15:33:23;;;;;;;8.52;5.47;;;31.00;64.70;;;;;;5030201;28;20405;-66
2023/09/08 15:36:27;;;;;;;6.68;5.80;;;31.30;63.80;;;;;;5030167;28;20052;-68
2023/09/08 15:39:32;;;;;;;7.45;5.45;;;31.30;63.80;;;;;;5030895;28;20045;-67
2023/09/08 15:42:36;;;;;;;13.73;6.05;;;32.40;63.30;;;;;;5030728;28;20504;-67
2023/09/08 15:45:40;;;;;;;7.82;5.38;;;32.80;62.50;;;;;;5029720;28;20512;-67
2023/09/08 15:48:44;;;;;;;9.13;5.82;;;32.50;62.00;;;;;;5030894;28;20044;-68
2023/09/08 15:51:48;;;;;;;15.30;5.55;;;32.20;62.60;;;;;;5030915;28;20043;-67
2023/09/08 15:54:52;;;;;;;8.38;5.90;;;32.70;62.10;;;;;;5030139;28;20041;-69